sensor_id;sensor_type;location;lat;lon;timestamp;P1;durP1;ratioP1;P2;durP2;ratioP2
51925;SDS011;37952;51.938;15.480;2022-10-16T00:02:45;5.40;;;5.10;;
51925;SDS011;37952;51.938;15.480;2022-10-16T00:05:49;5.50;;;4.60;;
51925;SDS011;37952;51.938;15.480;2022-10-16T00:08:51;4.90;;;4.50;;
51925;SDS011;37952;51.938;15.480;2022-10-16T00:11:55;4.70;;;4.50;;
51925;SDS011;37952;51.938;15.480;2022-10-16T00:14:58;4.60;;;4.30;;
51925;SDS011;37952;51.938;15.480;2022-10-16T00:18:00;5.00;;;4.80;;
51925;SDS011;37952;51.938;15.480;2022-10-16T00:21:05;5.10;;;4.90;;
51925;SDS011;37952;51.938;15.480;2022-10-16T00:24:10;4.40;;;4.20;;
51925;SDS011;37952;51.938;15.480;2022-10-16T00:27:14;4.40;;;4.10;;
51925;SDS011;37952;51.938;15.480;2022-10-16T00:30:17;6.40;;;4.20;;
51925;SDS011;37952;51.938;15.480;2022-10-16T00:33:19;5.50;;;5.20;;
51925;SDS011;37952;51.938;15.480;2022-10-16T00:36:23;5.20;;;4.90;;
51925;SDS011;37952;51.938;15.480;2022-10-16T00:39:27;4.50;;;4.20;;
51925;SDS011;37952;51.938;15.480;2022-10-16T00:42:30;5.00;;;4.60;;
51925;SDS011;37952;51.938;15.480;2022-10-16T00:45:33;4.60;;;4.40;;
51925;SDS011;37952;51.938;15.480;2022-10-16T00:48:36;4.70;;;4.40;;
51925;SDS011;37952;51.938;15.480;2022-10-16T00:51:41;4.90;;;4.60;;
51925;SDS011;37952;51.938;15.480;2022-10-16T00:54:46;5.30;;;4.20;;
51925;SDS011;37952;51.938;15.480;2022-10-16T00:57:52;4.40;;;4.20;;
51925;SDS011;37952;51.938;15.480;2022-10-16T01:00:55;4.10;;;3.90;;
51925;SDS011;37952;51.938;15.480;2022-10-16T01:03:58;4.60;;;4.30;;
51925;SDS011;37952;51.938;15.480;2022-10-16T01:07:12;4.20;;;4.00;;
51925;SDS011;37952;51.938;15.480;2022-10-16T01:10:40;5.00;;;4.80;;
51925;SDS011;37952;51.938;15.480;2022-10-16T01:13:51;4.50;;;4.30;;
51925;SDS011;37952;51.938;15.480;2022-10-16T01:17:00;4.30;;;4.10;;
51925;SDS011;37952;51.938;15.480;2022-10-16T01:30:10;4.30;;;4.00;;
51925;SDS011;37952;51.938;15.480;2022-10-16T01:33:20;4.10;;;3.90;;
51925;SDS011;37952;51.938;15.480;2022-10-16T01:36:34;4.20;;;4.00;;
51925;SDS011;37952;51.938;15.480;2022-10-16T01:39:41;4.80;;;4.30;;
51925;SDS011;37952;51.938;15.480;2022-10-16T01:42:49;5.70;;;3.90;;
51925;SDS011;37952;51.938;15.480;2022-10-16T01:45:58;3.80;;;3.60;;
51925;SDS011;37952;51.938;15.480;2022-10-16T01:49:03;3.60;;;3.40;;
51925;SDS011;37952;51.938;15.480;2022-10-16T01:52:09;4.10;;;3.80;;
51925;SDS011;37952;51.938;15.480;2022-10-16T01:55:18;4.30;;;4.10;;
51925;SDS011;37952;51.938;15.480;2022-10-16T01:59:26;3.90;;;3.70;;
51925;SDS011;37952;51.938;15.480;2022-10-16T02:02:33;4.50;;;4.30;;
51925;SDS011;37952;51.938;15.480;2022-10-16T02:05:38;4.40;;;4.20;;
51925;SDS011;37952;51.938;15.480;2022-10-16T02:08:45;4.10;;;3.70;;
51925;SDS011;37952;51.938;15.480;2022-10-16T02:11:49;3.70;;;3.60;;
51925;SDS011;37952;51.938;15.480;2022-10-16T02:14:55;4.00;;;3.60;;
51925;SDS011;37952;51.938;15.480;2022-10-16T02:17:59;4.40;;;4.10;;
51925;SDS011;37952;51.938;15.480;2022-10-16T02:28:03;3.50;;;3.20;;
51925;SDS011;37952;51.938;15.480;2022-10-16T02:31:14;4.40;;;4.20;;
51925;SDS011;37952;51.938;15.480;2022-10-16T02:34:21;3.70;;;3.50;;
51925;SDS011;37952;51.938;15.480;2022-10-16T02:37:26;4.40;;;4.20;;
51925;SDS011;37952;51.938;15.480;2022-10-16T02:40:30;3.80;;;3.60;;
51925;SDS011;37952;51.938;15.480;2022-10-16T02:43:34;4.20;;;3.90;;
51925;SDS011;37952;51.938;15.480;2022-10-16T02:46:37;3.50;;;3.30;;
51925;SDS011;37952;51.938;15.480;2022-10-16T02:49:40;4.20;;;3.90;;
51925;SDS011;37952;51.938;15.480;2022-10-16T02:52:43;4.60;;;4.40;;
51925;SDS011;37952;51.938;15.480;2022-10-16T02:55:46;3.90;;;3.70;;
51925;SDS011;37952;51.938;15.480;2022-10-16T02:58:49;3.60;;;3.40;;
51925;SDS011;37952;51.938;15.480;2022-10-16T03:01:52;3.60;;;3.40;;
51925;SDS011;37952;51.938;15.480;2022-10-16T03:04:55;4.20;;;3.80;;
51925;SDS011;37952;51.938;15.480;2022-10-16T03:07:58;4.10;;;3.80;;
51925;SDS011;37952;51.938;15.480;2022-10-16T03:11:03;4.00;;;3.70;;
51925;SDS011;37952;51.938;15.480;2022-10-16T03:14:06;5.10;;;4.70;;
51925;SDS011;37952;51.938;15.480;2022-10-16T03:17:09;4.80;;;4.50;;
51925;SDS011;37952;51.938;15.480;2022-10-16T03:20:12;3.50;;;3.30;;
51925;SDS011;37952;51.938;15.480;2022-10-16T03:23:16;5.00;;;4.70;;
51925;SDS011;37952;51.938;15.480;2022-10-16T03:26:19;4.20;;;4.00;;
51925;SDS011;37952;51.938;15.480;2022-10-16T03:29:22;4.70;;;4.40;;
51925;SDS011;37952;51.938;15.480;2022-10-16T03:32:25;4.90;;;4.60;;
51925;SDS011;37952;51.938;15.480;2022-10-16T03:35:28;4.20;;;4.00;;
51925;SDS011;37952;51.938;15.480;2022-10-16T03:38:32;4.10;;;3.90;;
51925;SDS011;37952;51.938;15.480;2022-10-16T03:41:35;4.20;;;3.90;;
51925;SDS011;37952;51.938;15.480;2022-10-16T03:44:38;3.30;;;3.10;;
51925;SDS011;37952;51.938;15.480;2022-10-16T03:47:41;4.60;;;4.40;;
51925;SDS011;37952;51.938;15.480;2022-10-16T03:50:44;3.90;;;3.70;;
51925;SDS011;37952;51.938;15.480;2022-10-16T03:53:48;4.40;;;4.10;;
51925;SDS011;37952;51.938;15.480;2022-10-16T03:56:51;3.80;;;3.50;;
51925;SDS011;37952;51.938;15.480;2022-10-16T03:59:54;3.80;;;3.60;;
51925;SDS011;37952;51.938;15.480;2022-10-16T04:02:57;4.30;;;4.10;;
51925;SDS011;37952;51.938;15.480;2022-10-16T04:06:00;4.40;;;4.10;;
51925;SDS011;37952;51.938;15.480;2022-10-16T04:09:03;3.90;;;3.70;;
51925;SDS011;37952;51.938;15.480;2022-10-16T04:12:06;3.80;;;3.60;;
51925;SDS011;37952;51.938;15.480;2022-10-16T04:15:09;3.50;;;3.30;;
51925;SDS011;37952;51.938;15.480;2022-10-16T04:18:13;4.20;;;3.90;;
51925;SDS011;37952;51.938;15.480;2022-10-16T04:21:15;4.70;;;4.40;;
51925;SDS011;37952;51.938;15.480;2022-10-16T04:24:18;4.00;;;3.80;;
51925;SDS011;37952;51.938;15.480;2022-10-16T04:27:21;3.90;;;3.70;;
51925;SDS011;37952;51.938;15.480;2022-10-16T04:30:25;4.40;;;3.50;;
51925;SDS011;37952;51.938;15.480;2022-10-16T04:33:28;3.40;;;3.30;;
51925;SDS011;37952;51.938;15.480;2022-10-16T04:36:31;4.30;;;4.10;;
51925;SDS011;37952;51.938;15.480;2022-10-16T04:39:34;4.30;;;4.10;;
51925;SDS011;37952;51.938;15.480;2022-10-16T04:42:37;4.20;;;4.00;;
51925;SDS011;37952;51.938;15.480;2022-10-16T04:45:40;3.60;;;3.40;;
51925;SDS011;37952;51.938;15.480;2022-10-16T04:48:42;4.70;;;4.20;;
51925;SDS011;37952;51.938;15.480;2022-10-16T04:51:45;3.60;;;3.30;;
51925;SDS011;37952;51.938;15.480;2022-10-16T04:54:48;3.90;;;3.70;;
51925;SDS011;37952;51.938;15.480;2022-10-16T04:57:52;5.10;;;4.80;;
51925;SDS011;37952;51.938;15.480;2022-10-16T05:00:55;4.40;;;4.00;;
51925;SDS011;37952;51.938;15.480;2022-10-16T05:03:58;4.20;;;3.90;;
51925;SDS011;37952;51.938;15.480;2022-10-16T05:07:01;4.00;;;3.80;;
51925;SDS011;37952;51.938;15.480;2022-10-16T05:10:04;3.90;;;3.70;;
51925;SDS011;37952;51.938;15.480;2022-10-16T05:13:07;3.90;;;3.60;;
51925;SDS011;37952;51.938;15.480;2022-10-16T05:16:11;4.70;;;4.40;;
51925;SDS011;37952;51.938;15.480;2022-10-16T05:19:14;4.20;;;4.00;;
51925;SDS011;37952;51.938;15.480;2022-10-16T05:22:29;3.70;;;3.50;;
51925;SDS011;37952;51.938;15.480;2022-10-16T05:25:32;3.20;;;3.00;;
51925;SDS011;37952;51.938;15.480;2022-10-16T05:28:35;3.30;;;3.10;;
51925;SDS011;37952;51.938;15.480;2022-10-16T05:31:38;4.10;;;3.80;;
51925;SDS011;37952;51.938;15.480;2022-10-16T05:34:41;4.10;;;3.90;;
51925;SDS011;37952;51.938;15.480;2022-10-16T05:37:47;3.40;;;3.30;;
51925;SDS011;37952;51.938;15.480;2022-10-16T05:40:51;3.80;;;3.60;;
51925;SDS011;37952;51.938;15.480;2022-10-16T05:43:56;3.30;;;3.20;;
51925;SDS011;37952;51.938;15.480;2022-10-16T05:47:00;3.40;;;3.20;;
51925;SDS011;37952;51.938;15.480;2022-10-16T05:50:03;4.00;;;3.80;;
51925;SDS011;37952;51.938;15.480;2022-10-16T05:53:07;4.40;;;3.90;;
51925;SDS011;37952;51.938;15.480;2022-10-16T05:56:10;4.80;;;3.80;;
51925;SDS011;37952;51.938;15.480;2022-10-16T05:59:16;3.50;;;3.30;;
51925;SDS011;37952;51.938;15.480;2022-10-16T06:02:19;3.50;;;3.20;;
51925;SDS011;37952;51.938;15.480;2022-10-16T06:05:22;3.40;;;3.20;;
51925;SDS011;37952;51.938;15.480;2022-10-16T06:08:25;4.00;;;3.80;;
51925;SDS011;37952;51.938;15.480;2022-10-16T06:11:29;3.20;;;3.10;;
51925;SDS011;37952;51.938;15.480;2022-10-16T06:14:33;3.20;;;3.00;;
51925;SDS011;37952;51.938;15.480;2022-10-16T06:17:36;3.10;;;2.90;;
51925;SDS011;37952;51.938;15.480;2022-10-16T06:20:39;3.50;;;3.40;;
51925;SDS011;37952;51.938;15.480;2022-10-16T06:23:42;3.20;;;3.10;;
51925;SDS011;37952;51.938;15.480;2022-10-16T06:26:45;3.60;;;3.40;;
51925;SDS011;37952;51.938;15.480;2022-10-16T06:29:48;3.30;;;3.20;;
51925;SDS011;37952;51.938;15.480;2022-10-16T06:32:51;3.20;;;3.00;;
51925;SDS011;37952;51.938;15.480;2022-10-16T06:35:59;3.20;;;3.10;;
51925;SDS011;37952;51.938;15.480;2022-10-16T06:39:04;3.10;;;3.00;;
51925;SDS011;37952;51.938;15.480;2022-10-16T06:42:09;3.70;;;3.60;;
51925;SDS011;37952;51.938;15.480;2022-10-16T06:45:12;3.50;;;3.30;;
51925;SDS011;37952;51.938;15.480;2022-10-16T06:48:15;3.50;;;3.30;;
51925;SDS011;37952;51.938;15.480;2022-10-16T06:51:21;2.90;;;2.60;;
51925;SDS011;37952;51.938;15.480;2022-10-16T06:54:26;3.30;;;3.20;;
51925;SDS011;37952;51.938;15.480;2022-10-16T06:57:29;4.30;;;3.90;;
51925;SDS011;37952;51.938;15.480;2022-10-16T07:00:32;3.90;;;3.40;;
51925;SDS011;37952;51.938;15.480;2022-10-16T07:03:36;3.10;;;2.90;;
51925;SDS011;37952;51.938;15.480;2022-10-16T07:06:40;3.00;;;2.80;;
51925;SDS011;37952;51.938;15.480;2022-10-16T07:09:43;3.00;;;2.90;;
51925;SDS011;37952;51.938;15.480;2022-10-16T07:12:46;3.50;;;3.20;;
51925;SDS011;37952;51.938;15.480;2022-10-16T07:15:49;3.20;;;3.00;;
51925;SDS011;37952;51.938;15.480;2022-10-16T07:18:53;3.40;;;3.20;;
51925;SDS011;37952;51.938;15.480;2022-10-16T07:22:02;3.10;;;3.00;;
51925;SDS011;37952;51.938;15.480;2022-10-16T07:25:11;3.00;;;2.90;;
51925;SDS011;37952;51.938;15.480;2022-10-16T07:28:14;4.00;;;3.70;;
51925;SDS011;37952;51.938;15.480;2022-10-16T07:31:18;3.70;;;3.50;;
51925;SDS011;37952;51.938;15.480;2022-10-16T07:34:22;3.10;;;2.90;;
51925;SDS011;37952;51.938;15.480;2022-10-16T07:37:25;2.70;;;2.60;;
51925;SDS011;37952;51.938;15.480;2022-10-16T07:40:29;3.00;;;2.60;;
51925;SDS011;37952;51.938;15.480;2022-10-16T07:43:32;2.70;;;2.60;;
51925;SDS011;37952;51.938;15.480;2022-10-16T07:46:35;8.10;;;3.00;;
51925;SDS011;37952;51.938;15.480;2022-10-16T07:49:38;3.40;;;3.10;;
51925;SDS011;37952;51.938;15.480;2022-10-16T07:52:41;3.20;;;3.10;;
51925;SDS011;37952;51.938;15.480;2022-10-16T07:55:44;3.00;;;2.80;;
51925;SDS011;37952;51.938;15.480;2022-10-16T07:58:47;2.70;;;2.50;;
51925;SDS011;37952;51.938;15.480;2022-10-16T08:01:51;2.70;;;2.50;;
51925;SDS011;37952;51.938;15.480;2022-10-16T08:04:54;3.10;;;2.90;;
51925;SDS011;37952;51.938;15.480;2022-10-16T08:07:57;2.50;;;2.40;;
51925;SDS011;37952;51.938;15.480;2022-10-16T08:11:00;2.90;;;2.70;;
51925;SDS011;37952;51.938;15.480;2022-10-16T08:14:06;2.80;;;2.60;;
51925;SDS011;37952;51.938;15.480;2022-10-16T08:17:09;4.90;;;2.60;;
51925;SDS011;37952;51.938;15.480;2022-10-16T08:20:12;3.20;;;3.00;;
51925;SDS011;37952;51.938;15.480;2022-10-16T08:23:15;3.00;;;2.80;;
51925;SDS011;37952;51.938;15.480;2022-10-16T08:26:18;2.70;;;2.60;;
51925;SDS011;37952;51.938;15.480;2022-10-16T08:29:21;2.70;;;2.50;;
51925;SDS011;37952;51.938;15.480;2022-10-16T08:32:24;2.30;;;2.10;;
51925;SDS011;37952;51.938;15.480;2022-10-16T08:35:29;2.90;;;2.70;;
51925;SDS011;37952;51.938;15.480;2022-10-16T08:38:33;3.00;;;2.90;;
51925;SDS011;37952;51.938;15.480;2022-10-16T08:51:57;2.50;;;2.40;;
51925;SDS011;37952;51.938;15.480;2022-10-16T08:55:00;3.00;;;2.90;;
51925;SDS011;37952;51.938;15.480;2022-10-16T08:58:23;2.80;;;2.60;;
51925;SDS011;37952;51.938;15.480;2022-10-16T09:01:45;2.30;;;2.20;;
51925;SDS011;37952;51.938;15.480;2022-10-16T09:08:37;2.30;;;2.20;;
51925;SDS011;37952;51.938;15.480;2022-10-16T09:12:04;2.00;;;1.90;;
51925;SDS011;37952;51.938;15.480;2022-10-16T09:21:47;1.90;;;1.80;;
51925;SDS011;37952;51.938;15.480;2022-10-16T09:24:51;4.10;;;1.30;;
51925;SDS011;37952;51.938;15.480;2022-10-16T09:27:54;1.10;;;1.10;;
51925;SDS011;37952;51.938;15.480;2022-10-16T09:30:58;1.40;;;1.40;;
51925;SDS011;37952;51.938;15.480;2022-10-16T09:34:02;1.50;;;1.40;;
51925;SDS011;37952;51.938;15.480;2022-10-16T09:37:10;1.20;;;1.20;;
51925;SDS011;37952;51.938;15.480;2022-10-16T09:40:25;0.90;;;0.90;;
51925;SDS011;37952;51.938;15.480;2022-10-16T09:44:30;1.70;;;1.60;;
51925;SDS011;37952;51.938;15.480;2022-10-16T09:47:43;2.70;;;1.60;;
51925;SDS011;37952;51.938;15.480;2022-10-16T09:51:00;1.90;;;1.80;;
51925;SDS011;37952;51.938;15.480;2022-10-16T09:57:12;2.70;;;2.50;;
51925;SDS011;37952;51.938;15.480;2022-10-16T10:00:16;2.80;;;2.40;;
51925;SDS011;37952;51.938;15.480;2022-10-16T10:06:34;2.50;;;2.20;;
51925;SDS011;37952;51.938;15.480;2022-10-16T10:09:42;1.90;;;1.80;;
51925;SDS011;37952;51.938;15.480;2022-10-16T10:12:48;2.00;;;1.90;;
51925;SDS011;37952;51.938;15.480;2022-10-16T10:15:51;1.40;;;1.20;;
51925;SDS011;37952;51.938;15.480;2022-10-16T10:18:59;1.30;;;1.30;;
51925;SDS011;37952;51.938;15.480;2022-10-16T10:22:13;2.20;;;2.10;;
51925;SDS011;37952;51.938;15.480;2022-10-16T10:32:45;1.80;;;1.70;;
51925;SDS011;37952;51.938;15.480;2022-10-16T10:36:27;2.30;;;2.20;;
51925;SDS011;37952;51.938;15.480;2022-10-16T10:39:47;3.10;;;2.00;;
51925;SDS011;37952;51.938;15.480;2022-10-16T10:43:19;1.40;;;1.30;;
51925;SDS011;37952;51.938;15.480;2022-10-16T10:46:34;1.60;;;1.40;;
51925;SDS011;37952;51.938;15.480;2022-10-16T10:56:45;1.20;;;1.10;;
51925;SDS011;37952;51.938;15.480;2022-10-16T11:07:04;2.20;;;1.40;;
51925;SDS011;37952;51.938;15.480;2022-10-16T11:10:16;3.60;;;1.30;;
51925;SDS011;37952;51.938;15.480;2022-10-16T11:13:27;1.60;;;1.50;;
51925;SDS011;37952;51.938;15.480;2022-10-16T11:16:37;1.90;;;1.80;;
51925;SDS011;37952;51.938;15.480;2022-10-16T11:26:12;1.30;;;1.20;;
51925;SDS011;37952;51.938;15.480;2022-10-16T11:29:22;0.90;;;0.90;;
51925;SDS011;37952;51.938;15.480;2022-10-16T11:32:32;0.80;;;0.80;;
51925;SDS011;37952;51.938;15.480;2022-10-16T11:35:53;1.20;;;0.60;;
51925;SDS011;37952;51.938;15.480;2022-10-16T11:39:28;1.70;;;1.10;;
51925;SDS011;37952;51.938;15.480;2022-10-16T11:42:40;1.30;;;1.10;;
51925;SDS011;37952;51.938;15.480;2022-10-16T11:45:51;0.80;;;0.80;;
51925;SDS011;37952;51.938;15.480;2022-10-16T11:49:14;1.60;;;1.50;;
51925;SDS011;37952;51.938;15.480;2022-10-16T11:52:25;1.20;;;1.20;;
51925;SDS011;37952;51.938;15.480;2022-10-16T11:56:04;1.30;;;1.20;;
51925;SDS011;37952;51.938;15.480;2022-10-16T11:59:12;1.60;;;1.50;;
51925;SDS011;37952;51.938;15.480;2022-10-16T12:02:39;1.10;;;1.10;;
51925;SDS011;37952;51.938;15.480;2022-10-16T12:05:55;0.70;;;0.70;;
51925;SDS011;37952;51.938;15.480;2022-10-16T12:09:26;0.60;;;0.60;;
51925;SDS011;37952;51.938;15.480;2022-10-16T12:15:39;0.70;;;0.70;;
51925;SDS011;37952;51.938;15.480;2022-10-16T12:19:09;0.60;;;0.60;;
51925;SDS011;37952;51.938;15.480;2022-10-16T12:22:17;0.80;;;0.60;;
51925;SDS011;37952;51.938;15.480;2022-10-16T12:25:26;0.60;;;0.60;;
51925;SDS011;37952;51.938;15.480;2022-10-16T12:28:40;0.80;;;0.70;;
51925;SDS011;37952;51.938;15.480;2022-10-16T12:31:46;1.30;;;0.80;;
51925;SDS011;37952;51.938;15.480;2022-10-16T12:34:59;0.60;;;0.60;;
51925;SDS011;37952;51.938;15.480;2022-10-16T12:38:05;0.50;;;0.50;;
51925;SDS011;37952;51.938;15.480;2022-10-16T12:41:25;0.40;;;0.40;;
51925;SDS011;37952;51.938;15.480;2022-10-16T12:44:34;2.00;;;0.40;;
51925;SDS011;37952;51.938;15.480;2022-10-16T12:47:46;1.00;;;0.50;;
51925;SDS011;37952;51.938;15.480;2022-10-16T12:50:51;0.50;;;0.50;;
51925;SDS011;37952;51.938;15.480;2022-10-16T13:00:33;0.40;;;0.40;;
51925;SDS011;37952;51.938;15.480;2022-10-16T13:04:00;0.40;;;0.40;;
51925;SDS011;37952;51.938;15.480;2022-10-16T13:28:35;0.50;;;0.50;;
51925;SDS011;37952;51.938;15.480;2022-10-16T13:31:41;0.70;;;0.70;;
51925;SDS011;37952;51.938;15.480;2022-10-16T13:34:48;0.80;;;0.80;;
51925;SDS011;37952;51.938;15.480;2022-10-16T13:38:02;0.60;;;0.60;;
51925;SDS011;37952;51.938;15.480;2022-10-16T13:41:25;2.50;;;0.70;;
51925;SDS011;37952;51.938;15.480;2022-10-16T13:44:29;0.60;;;0.60;;
51925;SDS011;37952;51.938;15.480;2022-10-16T13:47:37;0.70;;;0.70;;
51925;SDS011;37952;51.938;15.480;2022-10-16T13:50:40;0.70;;;0.70;;
51925;SDS011;37952;51.938;15.480;2022-10-16T13:53:44;2.30;;;0.80;;
51925;SDS011;37952;51.938;15.480;2022-10-16T13:56:48;0.70;;;0.70;;
51925;SDS011;37952;51.938;15.480;2022-10-16T14:00:20;1.30;;;0.40;;
51925;SDS011;37952;51.938;15.480;2022-10-16T14:03:25;2.00;;;0.70;;
51925;SDS011;37952;51.938;15.480;2022-10-16T14:06:31;0.50;;;0.50;;
51925;SDS011;37952;51.938;15.480;2022-10-16T14:09:35;0.60;;;0.60;;
51925;SDS011;37952;51.938;15.480;2022-10-16T14:12:39;0.60;;;0.60;;
51925;SDS011;37952;51.938;15.480;2022-10-16T14:15:45;0.70;;;0.70;;
51925;SDS011;37952;51.938;15.480;2022-10-16T14:18:54;0.80;;;0.60;;
51925;SDS011;37952;51.938;15.480;2022-10-16T14:22:03;0.60;;;0.60;;
51925;SDS011;37952;51.938;15.480;2022-10-16T14:25:27;1.40;;;0.80;;
51925;SDS011;37952;51.938;15.480;2022-10-16T14:28:32;1.10;;;1.00;;
51925;SDS011;37952;51.938;15.480;2022-10-16T14:31:41;1.30;;;0.50;;
51925;SDS011;37952;51.938;15.480;2022-10-16T14:34:52;0.50;;;0.50;;
51925;SDS011;37952;51.938;15.480;2022-10-16T14:37:57;2.50;;;0.50;;
51925;SDS011;37952;51.938;15.480;2022-10-16T14:41:02;0.60;;;0.60;;
51925;SDS011;37952;51.938;15.480;2022-10-16T14:44:09;0.50;;;0.50;;
51925;SDS011;37952;51.938;15.480;2022-10-16T14:47:15;0.50;;;0.50;;
51925;SDS011;37952;51.938;15.480;2022-10-16T14:50:20;2.90;;;0.50;;
51925;SDS011;37952;51.938;15.480;2022-10-16T14:53:23;0.60;;;0.60;;
51925;SDS011;37952;51.938;15.480;2022-10-16T14:56:31;0.60;;;0.60;;
51925;SDS011;37952;51.938;15.480;2022-10-16T14:59:44;0.40;;;0.40;;
51925;SDS011;37952;51.938;15.480;2022-10-16T15:02:48;0.80;;;0.40;;
51925;SDS011;37952;51.938;15.480;2022-10-16T15:05:52;0.70;;;0.60;;
51925;SDS011;37952;51.938;15.480;2022-10-16T15:08:54;0.40;;;0.40;;
51925;SDS011;37952;51.938;15.480;2022-10-16T15:11:57;0.50;;;0.50;;
51925;SDS011;37952;51.938;15.480;2022-10-16T15:15:00;1.20;;;0.40;;
51925;SDS011;37952;51.938;15.480;2022-10-16T15:18:04;2.90;;;0.40;;
51925;SDS011;37952;51.938;15.480;2022-10-16T15:21:24;0.20;;;0.20;;
51925;SDS011;37952;51.938;15.480;2022-10-16T15:24:29;0.50;;;0.40;;
51925;SDS011;37952;51.938;15.480;2022-10-16T15:27:32;0.30;;;0.30;;
51925;SDS011;37952;51.938;15.480;2022-10-16T15:30:42;3.50;;;0.50;;
51925;SDS011;37952;51.938;15.480;2022-10-16T15:33:52;0.20;;;0.20;;
51925;SDS011;37952;51.938;15.480;2022-10-16T15:37:02;1.90;;;1.80;;
51925;SDS011;37952;51.938;15.480;2022-10-16T15:40:09;1.70;;;1.60;;
51925;SDS011;37952;51.938;15.480;2022-10-16T15:43:12;0.80;;;0.80;;
51925;SDS011;37952;51.938;15.480;2022-10-16T15:46:18;0.80;;;0.70;;
51925;SDS011;37952;51.938;15.480;2022-10-16T15:49:22;0.90;;;0.90;;
51925;SDS011;37952;51.938;15.480;2022-10-16T15:52:25;1.90;;;1.60;;
51925;SDS011;37952;51.938;15.480;2022-10-16T15:55:28;6.90;;;3.50;;
51925;SDS011;37952;51.938;15.480;2022-10-16T15:58:33;5.30;;;4.50;;
51925;SDS011;37952;51.938;15.480;2022-10-16T16:01:37;9.70;;;5.00;;
51925;SDS011;37952;51.938;15.480;2022-10-16T16:04:40;5.00;;;4.20;;
51925;SDS011;37952;51.938;15.480;2022-10-16T16:07:46;7.20;;;4.70;;
51925;SDS011;37952;51.938;15.480;2022-10-16T16:11:03;3.40;;;3.10;;
51925;SDS011;37952;51.938;15.480;2022-10-16T16:14:10;2.90;;;2.30;;
51925;SDS011;37952;51.938;15.480;2022-10-16T16:17:15;1.90;;;1.80;;
51925;SDS011;37952;51.938;15.480;2022-10-16T16:20:18;2.00;;;1.40;;
51925;SDS011;37952;51.938;15.480;2022-10-16T16:23:21;2.20;;;2.10;;
51925;SDS011;37952;51.938;15.480;2022-10-16T16:26:28;3.00;;;2.70;;
51925;SDS011;37952;51.938;15.480;2022-10-16T16:29:36;2.00;;;1.90;;
51925;SDS011;37952;51.938;15.480;2022-10-16T16:32:39;2.30;;;2.20;;
51925;SDS011;37952;51.938;15.480;2022-10-16T16:35:42;1.90;;;1.80;;
51925;SDS011;37952;51.938;15.480;2022-10-16T16:38:46;2.50;;;2.10;;
51925;SDS011;37952;51.938;15.480;2022-10-16T16:41:49;1.70;;;1.60;;
51925;SDS011;37952;51.938;15.480;2022-10-16T16:44:52;1.70;;;1.60;;
51925;SDS011;37952;51.938;15.480;2022-10-16T16:47:56;3.10;;;1.70;;
51925;SDS011;37952;51.938;15.480;2022-10-16T16:51:06;2.00;;;1.90;;
51925;SDS011;37952;51.938;15.480;2022-10-16T16:54:10;1.50;;;1.40;;
51925;SDS011;37952;51.938;15.480;2022-10-16T16:57:18;1.60;;;1.50;;
51925;SDS011;37952;51.938;15.480;2022-10-16T17:00:22;4.50;;;1.80;;
51925;SDS011;37952;51.938;15.480;2022-10-16T17:03:29;2.10;;;1.30;;
51925;SDS011;37952;51.938;15.480;2022-10-16T17:06:34;1.60;;;1.50;;
51925;SDS011;37952;51.938;15.480;2022-10-16T17:09:37;1.50;;;1.40;;
51925;SDS011;37952;51.938;15.480;2022-10-16T17:12:40;1.70;;;1.60;;
51925;SDS011;37952;51.938;15.480;2022-10-16T17:15:45;1.10;;;1.10;;
51925;SDS011;37952;51.938;15.480;2022-10-16T17:18:50;1.10;;;1.00;;
51925;SDS011;37952;51.938;15.480;2022-10-16T17:21:57;0.90;;;0.90;;
51925;SDS011;37952;51.938;15.480;2022-10-16T17:25:00;2.50;;;1.50;;
51925;SDS011;37952;51.938;15.480;2022-10-16T17:28:06;1.60;;;1.50;;
51925;SDS011;37952;51.938;15.480;2022-10-16T17:31:12;2.20;;;2.00;;
51925;SDS011;37952;51.938;15.480;2022-10-16T17:34:19;6.30;;;4.60;;
51925;SDS011;37952;51.938;15.480;2022-10-16T17:37:22;5.90;;;5.40;;
51925;SDS011;37952;51.938;15.480;2022-10-16T17:40:25;11.60;;;8.10;;
51925;SDS011;37952;51.938;15.480;2022-10-16T17:43:28;7.40;;;6.70;;
51925;SDS011;37952;51.938;15.480;2022-10-16T17:46:31;5.00;;;4.60;;
51925;SDS011;37952;51.938;15.480;2022-10-16T17:49:41;2.70;;;2.50;;
51925;SDS011;37952;51.938;15.480;2022-10-16T17:52:44;1.90;;;1.80;;
51925;SDS011;37952;51.938;15.480;2022-10-16T17:55:48;1.50;;;1.40;;
51925;SDS011;37952;51.938;15.480;2022-10-16T17:58:51;1.50;;;1.40;;
51925;SDS011;37952;51.938;15.480;2022-10-16T18:01:56;1.40;;;1.20;;
51925;SDS011;37952;51.938;15.480;2022-10-16T18:04:59;2.00;;;1.20;;
51925;SDS011;37952;51.938;15.480;2022-10-16T18:08:02;1.50;;;1.10;;
51925;SDS011;37952;51.938;15.480;2022-10-16T18:11:05;1.40;;;1.30;;
51925;SDS011;37952;51.938;15.480;2022-10-16T18:14:10;1.60;;;1.40;;
51925;SDS011;37952;51.938;15.480;2022-10-16T18:17:15;0.90;;;0.90;;
51925;SDS011;37952;51.938;15.480;2022-10-16T18:20:21;0.90;;;0.90;;
51925;SDS011;37952;51.938;15.480;2022-10-16T18:23:24;3.90;;;0.80;;
51925;SDS011;37952;51.938;15.480;2022-10-16T18:26:27;1.10;;;1.10;;
51925;SDS011;37952;51.938;15.480;2022-10-16T18:29:31;2.80;;;1.80;;
51925;SDS011;37952;51.938;15.480;2022-10-16T18:32:33;3.00;;;1.50;;
51925;SDS011;37952;51.938;15.480;2022-10-16T18:35:37;1.50;;;1.30;;
51925;SDS011;37952;51.938;15.480;2022-10-16T18:38:40;1.90;;;1.30;;
51925;SDS011;37952;51.938;15.480;2022-10-16T18:41:43;1.30;;;1.20;;
51925;SDS011;37952;51.938;15.480;2022-10-16T18:44:46;1.00;;;1.00;;
51925;SDS011;37952;51.938;15.480;2022-10-16T18:47:54;1.40;;;1.30;;
51925;SDS011;37952;51.938;15.480;2022-10-16T18:51:10;3.10;;;1.30;;
51925;SDS011;37952;51.938;15.480;2022-10-16T18:54:20;1.10;;;1.10;;
51925;SDS011;37952;51.938;15.480;2022-10-16T18:57:26;0.80;;;0.80;;
51925;SDS011;37952;51.938;15.480;2022-10-16T19:00:32;0.90;;;0.90;;
51925;SDS011;37952;51.938;15.480;2022-10-16T19:03:35;1.40;;;1.30;;
51925;SDS011;37952;51.938;15.480;2022-10-16T19:06:41;1.50;;;1.40;;
51925;SDS011;37952;51.938;15.480;2022-10-16T19:09:46;1.30;;;1.20;;
51925;SDS011;37952;51.938;15.480;2022-10-16T19:12:49;1.10;;;1.00;;
51925;SDS011;37952;51.938;15.480;2022-10-16T19:15:54;3.10;;;1.20;;
51925;SDS011;37952;51.938;15.480;2022-10-16T19:19:06;1.80;;;1.00;;
51925;SDS011;37952;51.938;15.480;2022-10-16T19:22:10;0.80;;;0.80;;
51925;SDS011;37952;51.938;15.480;2022-10-16T19:25:16;3.40;;;0.90;;
51925;SDS011;37952;51.938;15.480;2022-10-16T19:28:19;0.80;;;0.80;;
51925;SDS011;37952;51.938;15.480;2022-10-16T19:31:23;0.60;;;0.60;;
51925;SDS011;37952;51.938;15.480;2022-10-16T19:34:28;2.30;;;0.80;;
51925;SDS011;37952;51.938;15.480;2022-10-16T19:37:31;2.10;;;1.10;;
51925;SDS011;37952;51.938;15.480;2022-10-16T19:40:34;0.80;;;0.60;;
51925;SDS011;37952;51.938;15.480;2022-10-16T19:43:38;0.80;;;0.80;;
51925;SDS011;37952;51.938;15.480;2022-10-16T19:46:42;0.80;;;0.80;;
51925;SDS011;37952;51.938;15.480;2022-10-16T19:49:46;0.60;;;0.60;;
51925;SDS011;37952;51.938;15.480;2022-10-16T19:52:51;1.10;;;1.00;;
51925;SDS011;37952;51.938;15.480;2022-10-16T19:55:54;1.70;;;1.00;;
51925;SDS011;37952;51.938;15.480;2022-10-16T19:58:58;1.20;;;1.10;;
51925;SDS011;37952;51.938;15.480;2022-10-16T20:02:01;0.70;;;0.70;;
51925;SDS011;37952;51.938;15.480;2022-10-16T20:05:07;2.00;;;0.80;;
51925;SDS011;37952;51.938;15.480;2022-10-16T20:08:10;1.20;;;1.00;;
51925;SDS011;37952;51.938;15.480;2022-10-16T20:11:14;1.80;;;0.90;;